createdAt,value
2023-05-12T00:00:51.313Z,31.33
2023-05-12T00:01:51.330Z,31.33
2023-05-12T00:02:51.458Z,31.33
2023-05-12T00:03:51.617Z,31.32
2023-05-12T00:04:51.472Z,31.33
2023-05-12T00:05:51.469Z,31.33
2023-05-12T00:06:51.503Z,31.33
2023-05-12T00:07:51.550Z,31.30
2023-05-12T00:08:51.573Z,31.36
2023-05-12T00:09:51.598Z,31.34
2023-05-12T00:10:51.645Z,31.34
2023-05-12T00:11:51.672Z,31.33
2023-05-12T00:12:51.705Z,31.34
2023-05-12T00:13:51.780Z,31.35
2023-05-12T00:14:51.749Z,31.34
2023-05-12T00:15:51.877Z,31.35
2023-05-12T00:16:51.947Z,31.36
2023-05-12T00:17:51.868Z,31.38
2023-05-12T00:18:51.878Z,31.36
2023-05-12T00:19:51.892Z,31.35
2023-05-12T00:20:51.930Z,31.38
2023-05-12T00:21:51.928Z,31.38
2023-05-12T00:22:51.926Z,31.37
2023-05-12T00:23:51.902Z,31.39
2023-05-12T00:24:51.899Z,31.37
2023-05-12T00:25:51.935Z,31.37
2023-05-12T00:26:51.893Z,31.38
2023-05-12T00:27:51.874Z,31.37
2023-05-12T00:28:51.896Z,31.37
2023-05-12T00:29:51.880Z,31.38
2023-05-12T00:30:51.879Z,31.39
2023-05-12T00:31:51.932Z,31.39
2023-05-12T00:32:51.918Z,31.38
2023-05-12T00:33:51.874Z,31.37
2023-05-12T00:34:51.920Z,31.40
2023-05-12T00:35:51.979Z,31.41
2023-05-12T00:36:52.011Z,31.39
2023-05-12T00:37:52.040Z,31.39
2023-05-12T00:38:52.079Z,31.41
2023-05-12T00:39:52.111Z,31.43
2023-05-12T00:40:52.160Z,31.43
2023-05-12T00:41:52.203Z,31.40
2023-05-12T00:42:52.249Z,31.43
2023-05-12T00:43:52.294Z,31.41
2023-05-12T00:44:52.342Z,31.42
2023-05-12T00:45:52.417Z,31.42
2023-05-12T00:46:52.396Z,31.43
2023-05-12T00:47:52.485Z,31.42
2023-05-12T00:48:52.469Z,31.40
2023-05-12T00:49:52.512Z,31.42
2023-05-12T00:50:52.563Z,31.41
2023-05-12T00:51:52.592Z,31.43
2023-05-12T00:52:52.694Z,31.44
2023-05-12T00:53:52.702Z,31.42
2023-05-12T00:54:52.745Z,31.43
2023-05-12T00:55:52.776Z,31.45
2023-05-12T00:56:52.811Z,31.44
2023-05-12T00:57:52.853Z,31.45
2023-05-12T00:58:52.885Z,31.44
2023-05-12T00:59:52.949Z,31.42
2023-05-12T01:00:53.025Z,31.45
2023-05-12T01:01:53.019Z,31.43
2023-05-12T01:02:53.125Z,31.44
2023-05-12T01:03:53.091Z,31.46
2023-05-12T01:04:53.126Z,31.45
2023-05-12T01:05:53.172Z,31.44
2023-05-12T01:06:53.217Z,31.46
2023-05-12T01:07:53.266Z,31.46
2023-05-12T01:08:53.306Z,31.48
2023-05-12T01:09:53.342Z,31.47
2023-05-12T01:10:53.351Z,31.47
2023-05-12T01:11:53.339Z,31.47
2023-05-12T01:12:53.345Z,31.48
2023-05-12T01:13:53.312Z,31.46
2023-05-12T01:14:53.307Z,31.46
2023-05-12T01:15:53.308Z,31.47
2023-05-12T01:16:53.363Z,31.47
2023-05-12T01:17:53.348Z,31.49
2023-05-12T01:18:53.395Z,31.46
2023-05-12T01:19:53.298Z,31.48
2023-05-12T01:20:53.290Z,31.49
2023-05-12T01:21:53.328Z,31.47
2023-05-12T01:22:53.373Z,31.49
2023-05-12T01:23:53.423Z,31.50
2023-05-12T01:24:53.457Z,31.48
2023-05-12T01:25:53.516Z,31.50
2023-05-12T01:26:53.553Z,31.49
2023-05-12T01:27:53.614Z,31.51
2023-05-12T01:28:53.637Z,31.51
2023-05-12T01:29:53.685Z,31.49
2023-05-12T01:30:53.756Z,31.50
2023-05-12T01:31:53.771Z,31.49
2023-05-12T01:32:53.857Z,31.50
2023-05-12T01:33:53.864Z,31.50
2023-05-12T01:34:53.887Z,31.51
2023-05-12T01:35:53.947Z,31.50
2023-05-12T01:36:53.989Z,31.51
2023-05-12T01:37:54.028Z,31.50
2023-05-12T01:38:54.076Z,31.50
2023-05-12T01:39:54.134Z,31.52
2023-05-12T01:40:54.174Z,31.51
2023-05-12T01:41:54.216Z,31.52
2023-05-12T01:42:54.256Z,31.51
2023-05-12T01:43:54.309Z,31.53
2023-05-12T01:44:54.357Z,31.50
2023-05-12T01:45:54.415Z,31.51
2023-05-12T01:46:54.546Z,31.51
2023-05-12T01:47:54.503Z,31.51
2023-05-12T01:48:54.536Z,31.53
2023-05-12T01:49:54.581Z,31.53
2023-05-12T01:50:54.627Z,31.55
2023-05-12T01:51:54.669Z,31.54
2023-05-12T01:52:54.713Z,31.53
2023-05-12T01:53:54.751Z,31.54
2023-05-12T01:54:54.809Z,31.53
2023-05-12T01:55:54.860Z,31.51
2023-05-12T01:56:54.899Z,31.53
2023-05-12T01:57:54.956Z,31.56
2023-05-12T01:58:55.026Z,31.56
2023-05-12T01:59:55.050Z,31.54
2023-05-12T02:00:55.085Z,31.52
2023-05-12T02:01:55.174Z,31.53
2023-05-12T02:02:55.289Z,31.52
2023-05-12T02:03:55.287Z,31.57
2023-05-12T02:04:55.266Z,31.56
2023-05-12T02:05:55.328Z,31.56
2023-05-12T02:06:55.368Z,31.57
2023-05-12T02:07:55.422Z,31.56
2023-05-12T02:08:55.452Z,31.53
2023-05-12T02:09:55.510Z,31.56
2023-05-12T02:10:55.554Z,31.55
2023-05-12T02:11:55.609Z,31.56
2023-05-12T02:12:55.649Z,31.55
2023-05-12T02:13:55.685Z,31.56
2023-05-12T02:14:55.732Z,31.58
2023-05-12T02:15:55.782Z,31.57
2023-05-12T02:16:55.850Z,31.59
2023-05-12T02:17:55.908Z,31.59
2023-05-12T02:18:55.932Z,31.57
2023-05-12T02:19:55.954Z,31.58
2023-05-12T02:20:56.005Z,31.58
2023-05-12T02:21:56.066Z,31.58
2023-05-12T02:22:56.097Z,31.58
2023-05-12T02:23:56.163Z,31.58
2023-05-12T02:24:56.177Z,31.60
2023-05-12T02:25:56.220Z,31.58
2023-05-12T02:26:56.266Z,31.59
2023-05-12T02:27:56.306Z,31.58
2023-05-12T02:28:56.371Z,31.57
2023-05-12T02:29:56.400Z,31.58
2023-05-12T02:30:56.438Z,31.59
2023-05-12T02:31:56.523Z,31.58
2023-05-12T02:32:56.604Z,31.58
2023-05-12T02:33:56.571Z,31.56
2023-05-12T02:34:56.618Z,31.59
2023-05-12T02:35:56.674Z,31.59
2023-05-12T02:36:56.711Z,31.60
2023-05-12T02:37:56.747Z,31.59
2023-05-12T02:38:56.793Z,31.59
2023-05-12T02:39:56.832Z,31.59
2023-05-12T02:40:56.890Z,31.60
2023-05-12T02:41:56.943Z,31.61
2023-05-12T02:42:56.967Z,31.61
2023-05-12T02:43:57.018Z,31.62
2023-05-12T02:44:57.074Z,31.59
2023-05-12T02:45:57.124Z,31.58
2023-05-12T02:46:57.154Z,31.60
2023-05-12T02:47:57.289Z,31.61
2023-05-12T02:48:57.254Z,31.59
2023-05-12T02:49:57.295Z,31.60
2023-05-12T02:50:57.360Z,31.60
2023-05-12T02:51:57.395Z,31.59
2023-05-12T02:52:57.430Z,31.59
2023-05-12T02:53:57.494Z,31.59
2023-05-12T02:54:57.535Z,31.62
2023-05-12T02:55:57.598Z,31.61
2023-05-12T02:56:57.643Z,31.61
2023-05-12T02:57:57.681Z,31.62
2023-05-12T02:58:57.731Z,31.62
2023-05-12T02:59:57.779Z,31.60
2023-05-12T03:01:09.425Z,31.58
2023-05-12T03:01:58.855Z,31.11
2023-05-12T03:02:57.863Z,30.53
2023-05-12T03:03:57.818Z,30.35
2023-05-12T03:04:57.790Z,30.14
2023-05-12T03:05:57.793Z,30.14
2023-05-12T03:06:57.791Z,30.05
2023-05-12T03:07:57.773Z,29.80
2023-05-12T03:08:57.759Z,29.72
2023-05-12T03:09:57.765Z,29.67
2023-05-12T03:10:57.754Z,29.64
2023-05-12T03:11:57.758Z,29.48
2023-05-12T03:12:57.740Z,29.39
2023-05-12T03:13:57.750Z,29.40
2023-05-12T03:14:57.728Z,29.29
2023-05-12T03:15:57.755Z,29.22
2023-05-12T03:16:57.825Z,29.21
2023-05-12T03:17:57.801Z,29.09
2023-05-12T03:18:57.785Z,29.02
2023-05-12T03:19:57.803Z,28.96
2023-05-12T03:20:57.841Z,28.93
2023-05-12T03:21:57.889Z,28.90
2023-05-12T03:22:57.919Z,28.80
2023-05-12T03:23:58.000Z,28.75
2023-05-12T03:24:58.025Z,28.70
2023-05-12T03:25:58.082Z,28.68
2023-05-12T03:26:58.132Z,28.65
2023-05-12T03:27:58.183Z,28.57
2023-05-12T03:28:58.256Z,28.56
2023-05-12T03:29:58.294Z,28.54
2023-05-12T03:30:58.356Z,28.51
2023-05-12T03:31:58.411Z,28.48
2023-05-12T03:32:58.470Z,28.45
2023-05-12T03:33:58.519Z,28.45
2023-05-12T03:34:58.583Z,28.43
2023-05-12T03:35:58.624Z,28.42
2023-05-12T03:36:58.693Z,28.42
2023-05-12T03:37:58.756Z,28.37
2023-05-12T03:38:58.827Z,28.41
2023-05-12T03:39:58.895Z,28.41
2023-05-12T03:40:58.933Z,28.36
2023-05-12T03:41:59.022Z,28.31
2023-05-12T03:42:59.079Z,28.26
2023-05-12T03:43:59.146Z,28.27
2023-05-12T03:44:59.210Z,28.27
2023-05-12T03:45:59.326Z,28.26
2023-05-12T03:46:59.399Z,28.21
2023-05-12T03:47:59.447Z,28.21
2023-05-12T03:48:59.462Z,28.18
2023-05-12T03:49:59.538Z,28.19
2023-05-12T03:50:59.579Z,28.17
2023-05-12T03:51:59.645Z,28.16
2023-05-12T03:52:59.669Z,28.15
2023-05-12T03:53:59.724Z,28.13
2023-05-12T03:54:59.797Z,28.13
2023-05-12T03:55:59.824Z,28.11
2023-05-12T03:56:59.860Z,28.12
2023-05-12T03:57:59.891Z,28.17
2023-05-12T03:58:59.934Z,28.12
2023-05-12T03:59:59.926Z,28.12
2023-05-12T04:00:59.916Z,28.14
2023-05-12T04:01:59.979Z,28.12
2023-05-12T04:02:59.976Z,28.12
2023-05-12T04:03:59.976Z,28.14
2023-05-12T04:04:59.923Z,28.12
2023-05-12T04:05:59.924Z,28.10
2023-05-12T04:06:59.918Z,28.09
2023-05-12T04:07:59.926Z,28.05
2023-05-12T04:08:59.927Z,28.09
2023-05-12T04:09:59.940Z,28.08
2023-05-12T04:10:59.936Z,28.12
2023-05-12T04:11:59.959Z,28.08
2023-05-12T04:12:59.946Z,28.09
2023-05-12T04:13:59.954Z,28.07
2023-05-12T04:14:59.945Z,28.12
2023-05-12T04:16:00.029Z,28.10
2023-05-12T04:16:59.990Z,28.10
2023-05-12T04:18:00.009Z,28.11
2023-05-12T04:18:59.969Z,28.11
2023-05-12T04:19:59.941Z,28.09
2023-05-12T04:20:59.947Z,28.13
2023-05-12T04:21:59.959Z,28.10
2023-05-12T04:22:59.962Z,28.11
2023-05-12T04:23:59.964Z,28.12
2023-05-12T04:24:59.964Z,28.13
2023-05-12T04:25:59.956Z,28.14
2023-05-12T04:26:59.966Z,28.12
2023-05-12T04:27:59.960Z,28.13
2023-05-12T04:28:59.959Z,28.10
2023-05-12T04:29:59.954Z,28.13
2023-05-12T04:30:59.942Z,28.17
2023-05-12T04:31:59.984Z,28.14
2023-05-12T04:32:59.987Z,28.13
2023-05-12T04:33:59.947Z,28.14
2023-05-12T04:34:59.947Z,28.13
2023-05-12T04:35:59.954Z,28.10
2023-05-12T04:36:59.955Z,28.14
2023-05-12T04:37:59.954Z,28.17
2023-05-12T04:38:59.951Z,28.21
2023-05-12T04:39:59.963Z,28.21
2023-05-12T04:41:00.003Z,28.22
2023-05-12T04:41:59.968Z,28.18
2023-05-12T04:42:59.960Z,28.21
2023-05-12T04:44:00.645Z,28.22
2023-05-12T04:44:59.959Z,28.19
2023-05-12T04:46:00.523Z,28.26
2023-05-12T04:47:00.030Z,28.24
2023-05-12T04:47:59.999Z,28.26
2023-05-12T04:48:59.964Z,28.26
2023-05-12T04:49:59.952Z,28.22
2023-05-12T04:50:59.951Z,28.25
2023-05-12T04:51:59.958Z,28.26
2023-05-12T04:52:59.941Z,28.25
2023-05-12T04:53:59.948Z,28.26
2023-05-12T04:54:59.987Z,28.26
2023-05-12T04:55:59.951Z,28.27
2023-05-12T04:56:59.951Z,28.30
2023-05-12T04:57:59.954Z,28.30
2023-05-12T04:58:59.954Z,28.28
2023-05-12T04:59:59.958Z,28.31
2023-05-12T05:01:00.011Z,28.30
2023-05-12T05:01:59.971Z,28.29
2023-05-12T05:03:00.056Z,28.35
2023-05-12T05:03:59.993Z,28.33
2023-05-12T05:04:59.974Z,28.35
2023-05-12T05:06:00.009Z,28.30
2023-05-12T05:07:00.031Z,28.25
2023-05-12T05:08:00.039Z,28.25
2023-05-12T05:09:00.064Z,28.25
2023-05-12T05:10:00.107Z,28.30
2023-05-12T05:11:00.114Z,28.28
2023-05-12T05:12:00.161Z,28.28
2023-05-12T05:13:00.169Z,28.27
2023-05-12T05:14:00.179Z,28.28
2023-05-12T05:15:00.194Z,28.33
2023-05-12T05:16:00.300Z,28.33
2023-05-12T05:17:00.257Z,28.36
2023-05-12T05:18:01.800Z,28.34
2023-05-12T05:19:03.788Z,28.37
2023-05-12T05:20:01.395Z,28.41
2023-05-12T05:21:00.548Z,28.42
2023-05-12T05:22:00.303Z,28.45
2023-05-12T05:23:00.316Z,28.43
2023-05-12T05:24:00.319Z,28.44
2023-05-12T05:25:00.312Z,28.44
2023-05-12T05:26:00.324Z,28.47
2023-05-12T05:27:00.326Z,28.45
2023-05-12T05:28:00.316Z,28.47
2023-05-12T05:29:00.330Z,28.58
2023-05-12T05:30:00.346Z,28.78
2023-05-12T05:31:00.365Z,28.71
2023-05-12T05:32:00.359Z,28.42
2023-05-12T05:33:00.375Z,28.91
2023-05-12T05:34:00.359Z,29.25
2023-05-12T05:35:00.352Z,29.43
2023-05-12T05:36:00.341Z,29.81
2023-05-12T05:37:00.335Z,29.62
2023-05-12T05:38:00.353Z,30.09
2023-05-12T05:39:00.395Z,29.90
2023-05-12T05:40:00.334Z,29.89
2023-05-12T05:41:00.334Z,30.03
2023-05-12T05:42:00.399Z,30.34
2023-05-12T05:43:00.383Z,30.71
2023-05-12T05:44:00.459Z,30.59
2023-05-12T05:45:00.367Z,31.09
2023-05-12T05:46:00.348Z,31.13
2023-05-12T05:47:00.414Z,31.03
2023-05-12T05:48:00.401Z,30.90
2023-05-12T05:49:00.355Z,30.96
2023-05-12T05:50:00.334Z,31.05
2023-05-12T05:51:00.389Z,31.14
2023-05-12T05:52:00.356Z,31.15
2023-05-12T05:53:00.332Z,31.24
2023-05-12T05:54:00.315Z,31.67
2023-05-12T05:55:00.327Z,30.64
2023-05-12T05:56:00.322Z,29.89
2023-05-12T05:57:00.322Z,29.70
2023-05-12T05:58:00.331Z,29.75
2023-05-12T05:59:00.337Z,30.07
2023-05-12T06:00:00.326Z,30.36
2023-05-12T06:01:00.342Z,30.28
2023-05-12T06:02:00.434Z,30.44
2023-05-12T06:03:00.445Z,30.52
2023-05-12T06:04:00.454Z,30.59
2023-05-12T06:05:00.353Z,30.80
2023-05-12T06:06:00.378Z,30.74
2023-05-12T06:07:00.405Z,30.75
2023-05-12T06:08:00.428Z,30.83
2023-05-12T06:09:00.435Z,30.91
2023-05-12T06:10:00.444Z,30.90
2023-05-12T06:11:00.453Z,30.81
2023-05-12T06:12:00.441Z,30.95
2023-05-12T06:13:00.435Z,30.83
2023-05-12T06:14:00.434Z,30.76
2023-05-12T06:15:00.423Z,30.60
2023-05-12T06:16:00.430Z,30.96
2023-05-12T06:17:00.518Z,30.98
2023-05-12T06:18:00.473Z,31.08
2023-05-12T06:19:00.437Z,31.11
2023-05-12T06:20:00.403Z,31.03
2023-05-12T06:21:00.418Z,31.17
2023-05-12T06:22:00.416Z,31.17
2023-05-12T06:23:00.419Z,31.33
2023-05-12T06:24:00.400Z,31.19
2023-05-12T06:25:00.408Z,31.32
2023-05-12T06:26:00.380Z,31.43
2023-05-12T06:27:00.377Z,31.42
2023-05-12T06:28:00.378Z,31.66
2023-05-12T06:29:00.379Z,31.67
2023-05-12T06:30:00.371Z,31.60
2023-05-12T06:31:00.408Z,31.61
2023-05-12T06:32:00.392Z,31.61
2023-05-12T06:33:00.469Z,31.82
2023-05-12T06:34:00.383Z,31.82
2023-05-12T06:35:00.398Z,31.92
2023-05-12T06:36:00.384Z,31.83
2023-05-12T06:37:00.390Z,32.00
2023-05-12T06:38:00.383Z,31.93
2023-05-12T06:39:00.370Z,32.11
2023-05-12T06:40:00.372Z,32.09
2023-05-12T06:41:00.410Z,32.29
2023-05-12T06:42:00.362Z,31.96
2023-05-12T06:43:00.373Z,31.21
2023-05-12T06:44:00.372Z,31.93
2023-05-12T06:45:00.373Z,31.63
2023-05-12T06:46:00.368Z,30.72
2023-05-12T06:47:00.355Z,30.23
2023-05-12T06:48:00.455Z,30.07
2023-05-12T06:49:00.372Z,30.54
2023-05-12T06:50:00.355Z,29.71
2023-05-12T06:51:00.360Z,29.79
2023-05-12T06:52:00.363Z,30.06
2023-05-12T06:53:00.357Z,30.17
2023-05-12T06:54:00.360Z,29.90
2023-05-12T06:55:00.435Z,29.76
2023-05-12T06:56:00.376Z,30.00
2023-05-12T06:57:00.391Z,29.95
2023-05-12T06:58:00.377Z,29.88
2023-05-12T06:59:00.432Z,29.50
2023-05-12T07:00:00.521Z,29.69
2023-05-12T07:01:00.536Z,29.50
2023-05-12T07:02:00.519Z,29.38
2023-05-12T07:03:00.545Z,29.59
2023-05-12T07:04:00.584Z,29.83
2023-05-12T07:05:00.526Z,29.45
2023-05-12T07:06:00.565Z,29.47
2023-05-12T07:07:00.548Z,29.99
2023-05-12T07:08:00.549Z,29.17
2023-05-12T07:09:00.565Z,29.30
2023-05-12T07:10:00.547Z,29.29
2023-05-12T07:11:00.595Z,29.07
2023-05-12T07:12:00.621Z,29.32
2023-05-12T07:13:00.701Z,29.72
2023-05-12T07:14:00.731Z,29.53
2023-05-12T07:15:00.769Z,29.57
2023-05-12T07:16:00.864Z,29.15
2023-05-12T07:17:00.907Z,29.24
2023-05-12T07:18:00.984Z,28.98
2023-05-12T07:19:01.022Z,29.42
2023-05-12T07:20:01.015Z,29.57
2023-05-12T07:21:01.016Z,29.24
2023-05-12T07:22:01.089Z,29.43
2023-05-12T07:23:01.091Z,29.45
2023-05-12T07:24:01.168Z,29.10
2023-05-12T07:25:01.228Z,29.52
2023-05-12T07:26:01.205Z,29.86
2023-05-12T07:27:01.213Z,29.59
2023-05-12T07:28:01.209Z,29.29
2023-05-12T07:29:01.372Z,29.01
2023-05-12T07:30:01.219Z,29.12
2023-05-12T07:31:01.252Z,29.26
2023-05-12T07:32:01.232Z,29.26
2023-05-12T07:33:01.288Z,29.55
2023-05-12T07:34:01.290Z,29.78
2023-05-12T07:35:01.243Z,29.69
2023-05-12T07:36:01.253Z,29.16
2023-05-12T07:37:01.255Z,29.74
2023-05-12T07:38:01.261Z,30.38
2023-05-12T07:39:01.251Z,30.81
2023-05-12T07:40:01.259Z,31.25
2023-05-12T07:41:01.313Z,31.19
2023-05-12T07:42:01.295Z,31.65
2023-05-12T07:43:01.355Z,31.34
2023-05-12T07:44:01.411Z,31.28
2023-05-12T07:45:01.481Z,31.23
2023-05-12T07:46:01.484Z,31.20
2023-05-12T07:47:01.530Z,31.15
2023-05-12T07:48:01.580Z,31.17
2023-05-12T07:49:01.561Z,31.13
2023-05-12T07:50:01.569Z,31.14
2023-05-12T07:51:01.596Z,31.13
2023-05-12T07:52:01.580Z,31.08
2023-05-12T07:53:01.608Z,31.08
2023-05-12T07:54:01.665Z,31.12
2023-05-12T07:55:01.736Z,31.12
2023-05-12T07:56:01.814Z,31.10
2023-05-12T07:57:02.656Z,31.05
2023-05-12T07:58:01.939Z,31.05
2023-05-12T07:59:02.286Z,31.02
2023-05-12T08:00:02.117Z,31.07
2023-05-12T08:01:02.084Z,31.01
2023-05-12T08:02:02.306Z,31.02
2023-05-12T08:03:02.396Z,31.05
2023-05-12T08:04:02.248Z,31.09
2023-05-12T08:05:02.222Z,31.12
2023-05-12T08:06:02.227Z,31.16
2023-05-12T08:07:02.250Z,31.19
2023-05-12T08:08:02.271Z,31.18
2023-05-12T08:09:02.306Z,31.21
2023-05-12T08:10:02.329Z,31.27
2023-05-12T08:11:02.324Z,31.29
2023-05-12T08:12:02.332Z,31.33
2023-05-12T08:13:02.373Z,31.38
2023-05-12T08:14:02.378Z,31.49
2023-05-12T08:15:02.466Z,31.40
2023-05-12T08:16:02.402Z,31.37
2023-05-12T08:17:02.559Z,31.36
2023-05-12T08:18:02.465Z,31.41
2023-05-12T08:19:02.509Z,31.40
2023-05-12T08:20:02.468Z,31.43
2023-05-12T08:21:02.498Z,31.47
2023-05-12T08:22:02.500Z,31.46
2023-05-12T08:23:02.499Z,31.47
2023-05-12T08:24:02.490Z,31.69
2023-05-12T08:25:02.494Z,31.81
2023-05-12T08:26:02.471Z,31.99
2023-05-12T08:27:02.466Z,31.94
2023-05-12T08:28:02.460Z,31.85
2023-05-12T08:29:02.456Z,31.80
2023-05-12T08:30:02.434Z,31.77
2023-05-12T08:31:04.841Z,32.19
2023-05-12T08:32:02.683Z,32.01
2023-05-12T08:33:02.732Z,31.82
2023-05-12T08:34:09.836Z,31.67
2023-05-12T08:35:02.681Z,31.61
2023-05-12T08:36:02.687Z,31.55
2023-05-12T08:37:02.664Z,31.34
2023-05-12T08:38:02.669Z,31.26
2023-05-12T08:39:02.668Z,31.22
2023-05-12T08:40:02.641Z,31.06
2023-05-12T08:41:02.638Z,30.94
2023-05-12T08:42:02.645Z,30.83
2023-05-12T08:43:02.644Z,30.78
2023-05-12T08:44:02.622Z,30.81
2023-05-12T08:45:02.655Z,30.70
2023-05-12T08:46:02.654Z,30.58
2023-05-12T08:47:02.735Z,30.64
2023-05-12T08:48:02.677Z,30.51
2023-05-12T08:49:02.618Z,30.42
2023-05-12T08:50:02.592Z,30.36
2023-05-12T08:51:02.596Z,30.34
2023-05-12T08:52:02.593Z,30.31
2023-05-12T08:53:02.580Z,30.18
2023-05-12T08:54:02.567Z,30.09
2023-05-12T08:55:03.450Z,30.09
2023-05-12T08:58:02.540Z,29.91
2023-05-12T08:59:02.533Z,29.83
2023-05-12T09:00:02.556Z,29.83
2023-05-12T09:01:02.551Z,29.76
2023-05-12T09:02:02.555Z,29.73
2023-05-12T09:03:02.785Z,29.68
2023-05-12T09:04:02.591Z,29.61
2023-05-12T09:05:02.518Z,29.62
2023-05-12T09:06:02.474Z,29.56
2023-05-12T09:07:02.468Z,29.49
2023-05-12T09:08:02.458Z,29.47
2023-05-12T09:09:02.451Z,29.46
2023-05-12T09:10:02.453Z,29.45
2023-05-12T09:11:02.449Z,29.46
2023-05-12T09:12:02.420Z,29.44
2023-05-12T09:13:02.426Z,29.42
2023-05-12T09:14:02.418Z,29.39
2023-05-12T09:15:02.425Z,29.38
2023-05-12T09:16:02.424Z,29.37
2023-05-12T09:17:02.425Z,29.50
2023-05-12T09:18:02.477Z,29.62
2023-05-12T09:19:03.997Z,29.63
2023-05-12T09:20:02.433Z,29.67
2023-05-12T09:21:02.354Z,29.66
2023-05-12T09:22:02.364Z,29.63
2023-05-12T09:23:02.334Z,29.50
2023-05-12T09:24:02.339Z,29.50
2023-05-12T09:25:02.355Z,29.55
2023-05-12T09:26:02.353Z,29.57
2023-05-12T09:27:02.322Z,29.52
2023-05-12T09:28:02.312Z,29.52
2023-05-12T09:29:02.312Z,29.54
2023-05-12T09:30:02.299Z,29.49
2023-05-12T09:31:02.281Z,29.53
2023-05-12T09:32:02.519Z,29.54
2023-05-12T09:33:02.321Z,29.54
2023-05-12T09:34:02.317Z,29.55
2023-05-12T09:35:02.406Z,29.56
2023-05-12T09:36:02.260Z,29.56
2023-05-12T09:37:02.267Z,29.60
2023-05-12T09:38:02.259Z,29.58
2023-05-12T09:39:02.243Z,29.62
2023-05-12T09:40:02.234Z,29.59
2023-05-12T09:41:02.234Z,29.59
2023-05-12T09:42:02.263Z,30.18
2023-05-12T09:43:02.211Z,30.77
2023-05-12T09:44:02.204Z,30.77
2023-05-12T09:45:02.179Z,30.97
2023-05-12T09:46:02.282Z,31.63
2023-05-12T09:47:02.167Z,31.14
2023-05-12T09:48:02.226Z,31.19
2023-05-12T09:49:02.158Z,31.08
2023-05-12T09:50:02.142Z,31.38
2023-05-12T09:51:02.208Z,31.07
2023-05-12T09:52:02.128Z,31.09
2023-05-12T09:53:02.113Z,31.36
2023-05-12T09:54:02.123Z,31.14
2023-05-12T09:55:02.112Z,31.18
2023-05-12T09:56:02.115Z,31.22
2023-05-12T09:57:02.099Z,31.21
2023-05-12T09:58:02.099Z,31.12
2023-05-12T09:59:02.096Z,30.99
2023-05-12T10:00:02.096Z,31.07
2023-05-12T10:02:02.114Z,30.88
2023-05-12T10:03:02.092Z,30.89
2023-05-12T10:04:02.073Z,30.89
2023-05-12T10:05:02.153Z,30.82
2023-05-12T10:06:02.089Z,30.71
2023-05-12T10:07:02.133Z,30.89
2023-05-12T10:08:02.073Z,30.88
2023-05-12T10:09:02.094Z,30.88
2023-05-12T10:10:02.063Z,30.88
2023-05-12T10:11:02.052Z,30.77
2023-05-12T10:12:02.060Z,30.67
2023-05-12T10:13:02.045Z,30.62
2023-05-12T10:14:02.092Z,30.99
2023-05-12T10:15:02.153Z,30.66
2023-05-12T10:16:02.148Z,30.60
2023-05-12T10:17:02.187Z,30.65
2023-05-12T10:18:02.175Z,30.61
2023-05-12T10:19:02.234Z,30.57
2023-05-12T10:20:02.180Z,30.56
2023-05-12T10:21:02.146Z,30.52
2023-05-12T10:22:02.148Z,30.56
2023-05-12T10:23:02.180Z,30.58
2023-05-12T10:24:02.154Z,30.39
2023-05-12T10:25:02.141Z,30.23
2023-05-12T10:26:02.230Z,30.29
2023-05-12T10:27:02.204Z,30.42
2023-05-12T10:28:02.184Z,30.12
2023-05-12T10:29:02.187Z,30.18
2023-05-12T10:30:02.202Z,30.13
2023-05-12T10:31:02.244Z,30.13
2023-05-12T10:32:02.200Z,30.05
2023-05-12T10:33:02.306Z,29.93
2023-05-12T10:34:02.197Z,29.99
2023-05-12T10:35:02.170Z,30.30
2023-05-12T10:36:02.226Z,31.15
2023-05-12T10:37:03.758Z,31.53
2023-05-12T10:38:02.214Z,30.74
2023-05-12T10:39:02.228Z,30.42
2023-05-12T10:40:02.277Z,30.62
2023-05-12T10:41:02.330Z,30.84
2023-05-12T10:42:02.412Z,30.38
2023-05-12T10:43:02.413Z,30.89
2023-05-12T10:44:02.503Z,30.78
2023-05-12T10:45:02.466Z,30.87
2023-05-12T10:46:02.481Z,30.83
2023-05-12T10:47:02.481Z,31.10
2023-05-12T10:48:02.543Z,31.19
2023-05-12T10:49:02.501Z,31.29
2023-05-12T10:50:02.567Z,31.44
2023-05-12T10:51:02.477Z,31.79
2023-05-12T10:52:02.473Z,31.70
2023-05-12T10:53:02.455Z,32.00
2023-05-12T10:54:02.469Z,31.90
2023-05-12T10:55:02.616Z,32.08
2023-05-12T10:56:02.817Z,31.93
2023-05-12T10:57:02.784Z,31.97
2023-05-12T10:58:02.752Z,31.95
2023-05-12T10:59:02.710Z,32.04
2023-05-12T11:00:03.880Z,32.20
2023-05-12T11:01:02.983Z,32.51
2023-05-12T11:03:08.012Z,33.10
2023-05-12T11:04:03.568Z,32.89
2023-05-12T11:05:02.526Z,32.87
2023-05-12T11:06:03.053Z,32.85
2023-05-12T11:08:02.754Z,32.90
2023-05-12T11:10:02.482Z,32.92
2023-05-12T11:11:03.312Z,32.89
2023-05-12T11:12:02.966Z,32.84
2023-05-12T11:13:02.417Z,32.82
2023-05-12T11:14:02.467Z,32.75
2023-05-12T11:15:02.523Z,32.63
2023-05-12T11:16:02.627Z,32.59
2023-05-12T11:17:02.639Z,32.55
2023-05-12T11:18:02.727Z,32.53
2023-05-12T11:19:02.844Z,32.54
2023-05-12T11:20:02.808Z,32.52
2023-05-12T11:21:02.851Z,32.61
2023-05-12T11:22:02.898Z,32.59
2023-05-12T11:23:02.952Z,32.69
2023-05-12T11:24:03.041Z,32.74
2023-05-12T11:25:03.125Z,33.51
2023-05-12T11:26:03.071Z,33.15
2023-05-12T11:27:03.125Z,33.00
2023-05-12T11:28:03.171Z,32.65
2023-05-12T11:29:03.247Z,32.56
2023-05-12T11:30:03.274Z,32.63
2023-05-12T11:31:03.330Z,32.51
2023-05-12T11:32:03.423Z,32.44
2023-05-12T11:33:03.715Z,32.36
2023-05-12T11:34:11.452Z,32.32
2023-05-12T11:35:03.473Z,32.14
2023-05-12T11:36:03.460Z,32.07
2023-05-12T11:38:22.287Z,32.26
2023-05-12T11:39:22.288Z,32.33
2023-05-12T11:40:22.346Z,32.44
2023-05-12T11:41:22.312Z,32.22
2023-05-12T11:42:25.108Z,32.01
2023-05-12T11:43:22.324Z,31.83
2023-05-12T11:44:22.346Z,31.77
2023-05-12T11:45:22.632Z,31.79
2023-05-12T11:46:22.441Z,31.76
2023-05-12T11:47:22.344Z,31.68
2023-05-12T11:48:22.344Z,31.47
2023-05-12T11:49:22.362Z,32.02
2023-05-12T11:50:22.353Z,31.40
2023-05-12T11:51:22.365Z,31.13
2023-05-12T11:52:22.369Z,31.09
2023-05-12T11:53:22.386Z,31.03
2023-05-12T11:54:22.391Z,30.89
2023-05-12T11:55:22.442Z,30.79
2023-05-12T11:56:22.381Z,30.67
2023-05-12T11:57:22.390Z,30.51
2023-05-12T11:58:22.432Z,30.47
2023-05-12T11:59:22.397Z,30.43
2023-05-12T12:00:22.402Z,30.42
2023-05-12T12:01:22.402Z,30.31
2023-05-12T12:02:22.441Z,30.18
2023-05-12T12:03:22.516Z,30.12
2023-05-12T12:04:22.500Z,30.15
2023-05-12T12:05:22.683Z,30.23
2023-05-12T12:06:22.415Z,30.33
2023-05-12T12:07:22.413Z,30.71
2023-05-12T12:08:22.408Z,30.78
2023-05-12T12:09:22.409Z,30.42
2023-05-12T12:10:22.416Z,30.32
2023-05-12T12:11:22.446Z,30.14
2023-05-12T12:12:22.457Z,30.00
2023-05-12T12:13:22.453Z,29.87
2023-05-12T12:14:22.505Z,29.82
2023-05-12T12:15:22.550Z,29.73
2023-05-12T12:16:22.503Z,29.66
2023-05-12T12:17:22.497Z,29.60
2023-05-12T12:18:22.514Z,29.53
2023-05-12T12:19:22.494Z,29.50
2023-05-12T12:20:22.500Z,29.40
2023-05-12T12:21:22.476Z,29.35
2023-05-12T12:22:22.487Z,29.32
2023-05-12T12:23:22.499Z,29.31
2023-05-12T12:24:22.507Z,29.21
2023-05-12T12:25:22.620Z,29.18
2023-05-12T12:26:22.505Z,29.14
2023-05-12T12:27:22.533Z,29.08
2023-05-12T12:28:22.515Z,29.04
2023-05-12T12:29:22.555Z,29.00
2023-05-12T12:30:22.549Z,29.01
2023-05-12T12:31:22.651Z,28.97
2023-05-12T12:32:22.567Z,28.98
2023-05-12T12:33:22.642Z,29.03
2023-05-12T12:34:22.551Z,29.02
2023-05-12T12:35:22.913Z,29.03
2023-05-12T12:36:22.554Z,29.07
2023-05-12T12:37:22.570Z,29.08
2023-05-12T12:38:22.573Z,29.06
2023-05-12T12:39:22.567Z,29.08
2023-05-12T12:40:22.570Z,29.08
2023-05-12T12:41:22.567Z,29.06
2023-05-12T12:42:22.574Z,29.00
2023-05-12T12:43:22.582Z,28.98
2023-05-12T12:44:22.584Z,28.97
2023-05-12T12:45:22.746Z,28.94
2023-05-12T12:46:22.735Z,28.94
2023-05-12T12:47:22.623Z,28.96
2023-05-12T12:48:22.596Z,28.96
2023-05-12T12:49:22.664Z,28.95
2023-05-12T12:50:23.898Z,28.94
2023-05-12T12:51:22.654Z,28.98
2023-05-12T12:52:22.680Z,28.99
2023-05-12T12:53:22.743Z,29.04
2023-05-12T12:54:22.820Z,29.05
2023-05-12T12:55:23.146Z,29.07
2023-05-12T12:56:24.377Z,29.10
2023-05-12T12:57:23.109Z,29.13
2023-05-12T12:58:23.126Z,29.11
2023-05-12T12:59:23.177Z,29.13
2023-05-12T13:00:23.215Z,29.17